»·PEaware :: SWA1771 KLAS-KBUR

SWA1771 :: KLAS-KBUR

FLIGHT INFORMATION

Flight Status: Arrived
Operator:
Southwest Airlines
More flights by this operator :: More flights under this callsign
Pilot: Ben F. (2808)
Aircraft: BOEING 737-300
(B733)
More flights by this aircraft type
Origin: KLAS McCarran Intl
United States
Destination: KBUR Bob Hope-Burbank
United States
More flights between these airports :: More routes between these airports
Route: BOACH8 WHIGG KREME JANNY5
File this flight plan on PilotEdge
Remarks:
Altitude:
(Current/Filed)
22,000ft
Speed:
(Current/Filed)
429kts
Departed: 16-Oct-18 08:12 AM
Arrived: 16-Oct-18 08:57 AM
Distance/Time
Traveled:
193nm/0:45
Distance/Time
To Go:
Arrived

Flight Plot

Page will automatically refresh every two minutes.

Flight plan parsing failed; only flown route is shown


Map Options




Map Legend


Flown Route
Filed Route
Departure Airport
Arrival Airport
Navaid (VOR, NDB)
Fix

Horizontal Profiles

Position Reports

Time Latitude Longitude Heading Altitude Ground
Speed
16-Oct-18 07:49 36.079781 -115.146273 342 2148ft 0kts
16-Oct-18 07:50 36.079781 -115.146273 342 2148ft 0kts
16-Oct-18 07:51 36.079781 -115.146273 342 2148ft 0kts
16-Oct-18 07:52 36.079781 -115.146273 342 2148ft 0kts
16-Oct-18 07:53 36.079781 -115.146273 342 2148ft 0kts
16-Oct-18 07:54 36.079781 -115.146273 342 2148ft 0kts
16-Oct-18 07:55 36.079781 -115.146273 342 2148ft 0kts
16-Oct-18 07:56 36.079781 -115.146273 342 2148ft 0kts
16-Oct-18 07:57 36.079781 -115.146273 342 2148ft 0kts
16-Oct-18 07:58 36.079781 -115.146273 342 2148ft 0kts
16-Oct-18 07:59 36.079781 -115.146273 342 2148ft 0kts
16-Oct-18 08:00 36.079781 -115.146273 342 2148ft 0kts
16-Oct-18 08:01 36.079781 -115.146273 342 2148ft 0kts
16-Oct-18 08:02 36.079781 -115.146273 342 2148ft 0kts
16-Oct-18 08:03 36.079781 -115.146273 342 2148ft 0kts
16-Oct-18 08:04 36.079781 -115.146272 342 2148ft 0kts
16-Oct-18 08:05 36.079395 -115.146045 315 2148ft 2kts
16-Oct-18 08:06 36.079289 -115.145830 285 2148ft 0kts
16-Oct-18 08:07 36.079289 -115.145830 285 2148ft 0kts
16-Oct-18 08:08 36.079320 -115.146881 270 2148ft 7kts
16-Oct-18 08:09 36.079138 -115.148121 204 2148ft 0kts
16-Oct-18 08:10 36.077922 -115.149313 275 2148ft 16kts
16-Oct-18 08:11 36.078016 -115.156932 270 2148ft 24kts
16-Oct-18 08:12 36.078016 -115.163912 271 2148ft 0kts
16-Oct-18 08:13 36.078452 -115.165071 25 2148ft 0kts
16-Oct-18 08:14 36.108510 -115.148498 15 3164ft 178kts
16-Oct-18 08:15 36.148029 -115.182341 273 5189ft 242kts
16-Oct-18 08:16 36.117102 -115.262981 226 7650ft 286kts
16-Oct-18 08:17 36.037209 -115.276483 182 10147ft 309kts
16-Oct-18 08:18 35.945500 -115.282475 179 12136ft 354kts
16-Oct-18 08:19 35.846400 -115.286936 179 14350ft 382kts
16-Oct-18 08:20 35.738829 -115.291826 180 16762ft 400kts
16-Oct-18 08:21 35.639842 -115.343420 231 18918ft 415kts
16-Oct-18 08:22 35.561979 -115.451041 230 20630ft 425kts
16-Oct-18 08:23 35.479772 -115.557503 226 22229ft 439kts
16-Oct-18 08:24 35.393515 -115.659675 225 22245ft 438kts
16-Oct-18 08:25 35.307113 -115.762266 225 22251ft 438kts
16-Oct-18 08:26 35.219636 -115.865705 225 22235ft 437kts
16-Oct-18 08:27 35.132344 -115.968601 225 22239ft 437kts
16-Oct-18 08:28 35.044941 -116.071168 225 22240ft 437kts
16-Oct-18 08:29 34.957469 -116.173465 227 22254ft 433kts
16-Oct-18 08:30 34.892064 -116.284429 252 22227ft 409kts
16-Oct-18 08:31 34.845626 -116.407098 250 22213ft 407kts
16-Oct-18 08:32 34.797108 -116.531928 250 22212ft 407kts
16-Oct-18 08:33 34.777067 -116.659792 269 22200ft 394kts
16-Oct-18 08:34 34.764943 -116.788194 268 22213ft 394kts
16-Oct-18 08:35 34.751811 -116.920813 268 22210ft 395kts
16-Oct-18 08:36 34.738364 -117.054111 268 22228ft 402kts
16-Oct-18 08:37 34.724502 -117.189829 268 21740ft 408kts
16-Oct-18 08:38 34.710707 -117.323989 268 19975ft 395kts
16-Oct-18 08:39 34.697087 -117.454856 268 18284ft 388kts
16-Oct-18 08:40 34.683185 -117.583014 268 16658ft 374kts
16-Oct-18 08:41 34.670604 -117.701308 268 15166ft 360kts
16-Oct-18 08:42 34.658128 -117.818972 268 14074ft 354kts
16-Oct-18 08:43 34.645205 -117.937987 268 13819ft 356kts
16-Oct-18 08:44 34.632747 -118.051743 268 12351ft 333kts
16-Oct-18 08:45 34.610793 -118.156771 260 10849ft 310kts
16-Oct-18 08:46 34.589359 -118.252846 260 9347ft 285kts
16-Oct-18 08:47 34.569076 -118.343626 259 8130ft 275kts
16-Oct-18 08:48 34.545530 -118.432629 232 8039ft 289kts
16-Oct-18 08:49 34.480246 -118.486898 216 7225ft 280kts
16-Oct-18 08:50 34.416332 -118.536433 217 6415ft 266kts
16-Oct-18 08:51 34.355349 -118.583849 218 6058ft 252kts
16-Oct-18 08:52 34.295793 -118.628494 193 5081ft 248kts
16-Oct-18 08:53 34.232350 -118.617388 171 4211ft 222kts
16-Oct-18 08:54 34.199768 -118.572756 89 3704ft 190kts
16-Oct-18 08:55 34.199531 -118.509946 87 3123ft 182kts
16-Oct-18 08:56 34.198992 -118.448588 90 2113ft 179kts
16-Oct-18 08:57 34.198387 -118.396240 91 1207ft 146kts
16-Oct-18 08:58 34.197680 -118.351863 92 783ft 54kts
16-Oct-18 08:59 34.197178 -118.351342 271 783ft 7kts
16-Oct-18 09:00 34.196805 -118.351975 179 783ft 0kts
16-Oct-18 09:01 34.196805 -118.351975 179 783ft 0kts

Navigation Log

Ident Type
Flight plan parsing failed, navigation log unavailable